createdAt,value
2022-11-05T06:15:53.718Z,2.30
2022-11-05T06:18:20.796Z,2.40
2022-11-05T06:20:47.726Z,2.40
2022-11-05T06:23:14.699Z,2.40
2022-11-05T06:25:41.702Z,2.40
2022-11-05T06:28:08.785Z,2.40
2022-11-05T06:30:35.718Z,2.50
2022-11-05T06:33:04.549Z,2.50
2022-11-05T06:35:31.900Z,2.40
2022-11-05T06:38:02.261Z,2.30
2022-11-05T06:40:29.751Z,2.20
2022-11-05T06:42:56.754Z,2.10
2022-11-05T06:45:23.958Z,2.20
2022-11-05T06:47:57.110Z,2.10
2022-11-05T06:50:28.957Z,1.90
2022-11-05T06:53:01.426Z,1.90
2022-11-05T06:55:30.074Z,1.90
2022-11-05T06:57:57.750Z,1.90
2022-11-05T07:00:25.170Z,1.80
2022-11-05T07:02:52.114Z,1.90
2022-11-05T07:05:19.256Z,1.90
2022-11-05T07:07:46.355Z,2.00
2022-11-05T07:10:18.679Z,2.00
2022-11-05T07:12:45.886Z,2.10
2022-11-05T07:15:13.675Z,2.30
2022-11-05T07:17:40.940Z,2.40
2022-11-05T07:20:09.348Z,2.50
2022-11-05T07:22:36.834Z,2.60
2022-11-05T07:25:05.653Z,2.60
2022-11-05T07:27:38.839Z,2.60
2022-11-05T07:30:08.706Z,2.50
2022-11-05T07:32:41.904Z,2.40
2022-11-05T07:35:10.043Z,2.40
2022-11-05T07:37:47.854Z,2.40
2022-11-05T07:40:16.287Z,2.30
2022-11-05T07:42:44.244Z,2.20
2022-11-05T07:45:11.980Z,2.20
2022-11-05T07:47:45.098Z,2.10
2022-11-05T07:50:12.004Z,2.10
2022-11-05T07:52:39.014Z,2.20
2022-11-05T07:55:06.496Z,2.10
2022-11-05T07:57:40.027Z,2.10
2022-11-05T08:00:07.799Z,2.00
2022-11-05T08:02:34.832Z,2.00
2022-11-05T08:05:02.105Z,2.00
2022-11-05T08:07:29.020Z,2.00
2022-11-05T08:09:55.911Z,2.00
2022-11-05T08:12:22.880Z,2.20
2022-11-05T08:14:50.793Z,2.20
2022-11-05T08:17:18.685Z,2.30
2022-11-05T08:19:45.738Z,2.40
2022-11-05T08:22:12.688Z,2.40
2022-11-05T08:24:39.618Z,2.40
2022-11-05T08:27:06.589Z,2.40
2022-11-05T08:29:33.584Z,2.40
2022-11-05T08:32:00.529Z,2.40
2022-11-05T08:34:27.412Z,2.40
2022-11-05T08:36:54.495Z,2.80
2022-11-05T08:39:21.383Z,3.40
2022-11-05T08:41:48.503Z,3.70
2022-11-05T08:44:15.673Z,3.80
2022-11-05T08:46:43.027Z,3.80
2022-11-05T08:49:10.041Z,3.70
2022-11-05T08:51:37.054Z,3.60
2022-11-05T08:54:04.314Z,3.60
2022-11-05T08:56:31.258Z,3.70
2022-11-05T08:58:58.188Z,3.70
2022-11-05T09:01:34.253Z,3.70
2022-11-05T09:04:01.596Z,4.20
2022-11-05T09:06:29.989Z,4.90
2022-11-05T09:08:57.096Z,5.70
2022-11-05T09:11:33.141Z,6.30
2022-11-05T09:14:11.090Z,6.80
2022-11-05T09:17:19.229Z,7.00
2022-11-05T09:19:46.512Z,6.80
2022-11-05T09:22:13.787Z,6.20
2022-11-05T09:24:41.744Z,5.90
2022-11-05T09:27:10.460Z,5.50
2022-11-05T09:29:37.855Z,5.40
2022-11-05T09:32:05.137Z,5.20
2022-11-05T09:34:32.527Z,5.10
2022-11-05T09:37:00.119Z,5.00
2022-11-05T09:39:27.103Z,5.00
2022-11-05T09:42:01.212Z,5.00
2022-11-05T09:44:37.763Z,5.00
2022-11-05T09:47:11.357Z,4.90
2022-11-05T09:49:59.114Z,4.90
2022-11-05T09:52:29.524Z,4.90
2022-11-05T09:54:57.792Z,4.80
2022-11-05T09:57:53.359Z,4.90
2022-11-05T10:00:21.084Z,4.80
2022-11-05T10:02:47.938Z,4.80
2022-11-05T10:05:15.992Z,4.80
2022-11-05T10:07:50.847Z,4.80
2022-11-05T10:10:50.938Z,4.80
2022-11-05T10:13:27.815Z,4.90
2022-11-05T10:16:21.635Z,4.90
2022-11-05T10:18:55.070Z,4.90
2022-11-05T10:21:44.291Z,5.10
2022-11-05T10:24:15.141Z,5.10
2022-11-05T10:26:43.460Z,5.30
2022-11-05T10:29:15.522Z,5.40
2022-11-05T10:31:43.891Z,5.60
2022-11-05T10:34:16.919Z,5.70
2022-11-05T10:36:44.482Z,5.90
2022-11-05T10:39:19.430Z,6.20
2022-11-05T10:42:17.322Z,6.40
2022-11-05T10:44:58.777Z,6.50
2022-11-05T10:47:37.868Z,6.40
2022-11-05T10:50:09.701Z,6.50
2022-11-05T10:52:51.897Z,6.50
2022-11-05T10:55:29.583Z,6.50
2022-11-05T10:58:13.333Z,6.50
2022-11-05T11:00:41.297Z,6.50
2022-11-05T11:03:46.804Z,6.60
2022-11-05T11:06:22.448Z,6.70
2022-11-05T11:08:51.314Z,6.70
2022-11-05T11:11:36.655Z,6.80
2022-11-05T11:14:14.111Z,6.90
2022-11-05T11:16:43.919Z,6.90
2022-11-05T11:19:33.950Z,6.90
2022-11-05T11:22:03.834Z,7.10
2022-11-05T11:24:44.098Z,7.10
2022-11-05T11:27:33.332Z,7.20
2022-11-05T11:30:05.543Z,7.40
2022-11-05T11:32:37.294Z,7.50
2022-11-05T11:35:06.702Z,7.50
2022-11-05T11:37:37.329Z,7.50
2022-11-05T11:40:13.263Z,7.60
2022-11-05T11:42:41.583Z,7.60
2022-11-05T11:45:18.625Z,7.60
2022-11-05T11:47:48.935Z,7.60
2022-11-05T11:50:36.821Z,7.70
2022-11-05T11:53:22.058Z,7.80
2022-11-05T11:56:12.582Z,7.80
2022-11-05T11:58:43.471Z,7.80
2022-11-05T12:01:37.940Z,7.80
2022-11-05T12:04:27.254Z,7.80
2022-11-05T12:07:18.577Z,7.80
2022-11-05T12:10:00.251Z,7.80
2022-11-05T12:12:49.891Z,7.80
2022-11-05T12:15:49.774Z,7.90
2022-11-05T12:18:19.443Z,7.90
2022-11-05T12:21:14.350Z,7.90
2022-11-05T12:24:05.739Z,7.90
2022-11-05T12:26:40.898Z,7.90
2022-11-05T12:29:55.147Z,8.00
2022-11-05T12:32:40.658Z,8.00
2022-11-05T12:35:17.133Z,8.00
2022-11-05T12:37:59.124Z,8.00
2022-11-05T12:40:44.655Z,8.00
2022-11-05T12:43:15.989Z,8.10
2022-11-05T12:46:08.796Z,8.10
2022-11-05T12:48:57.840Z,8.20
2022-11-05T12:51:55.960Z,8.20
2022-11-05T12:54:42.005Z,8.30
2022-11-05T12:57:12.606Z,8.30
2022-11-05T12:59:48.592Z,8.30
2022-11-05T13:02:30.669Z,8.40
2022-11-05T13:05:18.044Z,8.50
2022-11-05T13:08:05.201Z,8.70
2022-11-05T13:10:41.262Z,8.70
2022-11-05T13:13:26.136Z,8.70
2022-11-05T13:16:12.420Z,8.70
2022-11-05T13:19:05.638Z,8.80
2022-11-05T13:21:34.451Z,9.10
2022-11-05T13:24:11.936Z,9.10
2022-11-05T13:26:54.337Z,9.20
2022-11-05T13:29:44.377Z,9.30
2022-11-05T13:32:33.386Z,9.40
2022-11-05T13:35:04.346Z,9.40
2022-11-05T13:37:56.203Z,9.40
2022-11-05T13:40:45.047Z,9.30
2022-11-05T13:43:27.810Z,9.40
2022-11-05T13:46:23.551Z,9.40
2022-11-05T13:49:03.471Z,9.50
2022-11-05T13:51:55.242Z,9.50
2022-11-05T13:54:46.850Z,9.60
2022-11-05T13:57:54.601Z,9.60
2022-11-05T14:00:30.048Z,9.60
2022-11-05T14:03:02.520Z,9.60
2022-11-05T14:05:37.470Z,9.60
2022-11-05T14:08:20.904Z,9.70
2022-11-05T14:10:58.855Z,9.60
2022-11-05T14:13:38.739Z,9.70
2022-11-05T14:16:20.781Z,9.70
2022-11-05T14:18:53.999Z,9.70
2022-11-05T14:21:27.013Z,9.80
2022-11-05T14:23:54.342Z,9.80
2022-11-05T14:26:26.778Z,9.90
2022-11-05T14:29:05.871Z,9.90
2022-11-05T14:32:08.296Z,10.00
2022-11-05T14:34:43.968Z,10.00
2022-11-05T14:37:27.612Z,10.00
2022-11-05T14:39:55.783Z,10.00
2022-11-05T14:42:28.994Z,10.00
2022-11-05T14:45:00.621Z,10.00
2022-11-05T14:47:31.941Z,10.00
2022-11-05T14:50:01.309Z,10.00
2022-11-05T14:52:29.077Z,10.00
2022-11-05T14:54:58.627Z,9.90
2022-11-05T14:57:43.874Z,9.90
2022-11-05T15:00:29.372Z,9.90
2022-11-05T15:02:58.984Z,9.90
2022-11-05T15:05:34.732Z,10.00
2022-11-05T15:08:32.315Z,9.90
2022-11-05T15:11:17.552Z,9.90
2022-11-05T15:14:01.146Z,9.90
2022-11-05T15:16:44.996Z,10.00
2022-11-05T15:19:21.353Z,9.90
2022-11-05T15:21:49.423Z,9.90
2022-11-05T15:24:18.676Z,9.80
2022-11-05T15:26:58.635Z,9.70
2022-11-05T15:29:28.939Z,9.70
2022-11-05T15:31:56.417Z,9.60
2022-11-05T15:34:25.587Z,9.60
2022-11-05T15:36:56.167Z,9.50
2022-11-05T15:39:40.338Z,9.50
2022-11-05T15:42:12.827Z,9.50
2022-11-05T15:44:43.628Z,9.50
2022-11-05T15:47:15.208Z,9.40
2022-11-05T15:49:45.109Z,9.40
2022-11-05T15:52:14.804Z,9.40
2022-11-05T15:54:42.767Z,9.30
2022-11-05T15:57:40.084Z,9.30
2022-11-05T16:00:17.858Z,9.30
2022-11-05T16:03:11.418Z,9.30
2022-11-05T16:05:44.039Z,9.30
2022-11-05T16:08:27.428Z,9.30
2022-11-05T16:10:57.977Z,9.30
2022-11-05T16:13:41.330Z,9.20
2022-11-05T16:16:14.231Z,9.20
2022-11-05T16:18:42.860Z,9.10
2022-11-05T16:21:15.415Z,9.10
2022-11-05T16:23:48.438Z,9.10
2022-11-05T16:27:00.433Z,9.00
2022-11-05T16:29:28.057Z,8.90
2022-11-05T16:31:56.812Z,8.90
2022-11-05T16:34:42.095Z,8.80
2022-11-05T16:37:13.607Z,8.70
2022-11-05T16:39:40.873Z,8.60
2022-11-05T16:42:34.159Z,8.70
2022-11-05T16:45:01.064Z,8.70
2022-11-05T16:47:28.056Z,8.70
2022-11-05T16:49:55.087Z,8.70
2022-11-05T16:52:22.208Z,8.70
2022-11-05T16:54:49.205Z,8.70
2022-11-05T16:57:31.715Z,8.60
2022-11-05T17:00:00.277Z,8.50
2022-11-05T17:02:27.956Z,8.40
2022-11-05T17:04:55.015Z,8.30
2022-11-05T17:07:22.051Z,8.20
2022-11-05T17:09:49.252Z,8.20
2022-11-05T17:12:16.308Z,8.20
2022-11-05T17:14:43.204Z,8.20
2022-11-05T17:17:10.822Z,8.10
2022-11-05T17:19:42.413Z,8.00
2022-11-05T17:22:09.742Z,8.00
2022-11-05T17:24:36.777Z,7.90
2022-11-05T17:27:03.725Z,7.90
2022-11-05T17:29:30.643Z,7.80
2022-11-05T17:31:57.718Z,7.80
2022-11-05T17:34:24.587Z,7.80
2022-11-05T17:36:51.827Z,7.70
2022-11-05T17:39:18.737Z,7.60
2022-11-05T17:41:46.236Z,7.60
2022-11-05T17:44:13.157Z,7.60
2022-11-05T17:46:40.036Z,7.50
2022-11-05T17:49:06.953Z,7.40
2022-11-05T17:51:34.681Z,7.30
2022-11-05T17:54:01.614Z,7.20
2022-11-05T17:56:34.464Z,7.10
2022-11-05T17:59:03.948Z,7.10
2022-11-05T18:01:33.615Z,7.00
2022-11-05T18:04:07.262Z,7.10
2022-11-05T18:06:37.362Z,7.20
2022-11-05T18:09:08.773Z,7.30
2022-11-05T18:11:36.436Z,7.20
2022-11-05T18:14:03.900Z,7.10
2022-11-05T18:16:30.862Z,7.00
2022-11-05T18:18:57.785Z,7.00
2022-11-05T18:21:24.742Z,6.90
2022-11-05T18:23:51.725Z,6.80
2022-11-05T18:26:18.782Z,6.70
2022-11-05T18:28:46.244Z,6.60
2022-11-05T18:31:20.612Z,6.50
2022-11-05T18:33:48.975Z,6.40
2022-11-05T18:36:30.603Z,6.40
2022-11-05T18:38:59.135Z,6.40
2022-11-05T18:41:26.282Z,6.30
2022-11-05T18:43:53.207Z,6.30
2022-11-05T18:46:51.643Z,6.30
2022-11-05T18:49:12.997Z,6.30
2022-11-05T18:51:39.909Z,6.30
2022-11-05T18:54:07.499Z,6.30
2022-11-05T18:56:35.735Z,6.30
2022-11-05T18:59:34.658Z,6.30
2022-11-05T19:01:49.737Z,6.40
2022-11-05T19:04:17.272Z,6.40
2022-11-05T19:06:44.585Z,6.50
2022-11-05T19:09:12.162Z,6.50
2022-11-05T19:11:40.483Z,6.50
2022-11-05T19:14:08.034Z,6.50
2022-11-05T19:16:34.998Z,6.50
2022-11-05T19:19:03.990Z,6.40
2022-11-05T19:21:31.399Z,6.40
2022-11-05T19:24:01.474Z,6.40
2022-11-05T19:26:29.512Z,6.30
2022-11-05T19:29:01.839Z,6.30
2022-11-05T19:31:29.591Z,6.30
2022-11-05T19:33:56.691Z,6.30
2022-11-05T19:36:24.808Z,6.20
2022-11-05T19:38:57.794Z,6.20
2022-11-05T19:41:25.994Z,6.20
2022-11-05T19:43:58.171Z,6.10
2022-11-05T19:46:25.939Z,6.10
2022-11-05T19:48:53.327Z,6.10
2022-11-05T19:51:25.339Z,6.10
2022-11-05T19:53:53.819Z,6.00
2022-11-05T19:56:23.279Z,6.00
2022-11-05T19:58:50.734Z,5.90
2022-11-05T20:01:18.978Z,5.80
2022-11-05T20:03:46.747Z,5.70
2022-11-05T20:06:17.160Z,5.70
2022-11-05T20:09:14.846Z,5.60
2022-11-05T20:11:32.217Z,5.60
2022-11-05T20:13:59.219Z,5.50
2022-11-05T20:16:28.973Z,5.50
2022-11-05T20:18:56.970Z,5.50
2022-11-05T20:21:23.888Z,5.40
2022-11-05T20:23:50.867Z,5.30
2022-11-05T20:26:17.822Z,5.30
2022-11-05T20:28:45.688Z,5.30
2022-11-05T20:31:14.862Z,5.20
2022-11-05T20:33:42.687Z,5.20
2022-11-05T20:36:15.942Z,5.10
2022-11-05T20:38:43.111Z,5.00
2022-11-05T20:41:12.631Z,5.00
2022-11-05T20:43:41.171Z,4.90
2022-11-05T20:46:09.964Z,4.80
2022-11-05T20:48:36.975Z,4.80
2022-11-05T20:51:09.641Z,4.70
2022-11-05T20:53:37.025Z,4.70
2022-11-05T20:56:07.767Z,4.60
2022-11-05T20:58:37.030Z,4.60
2022-11-05T21:01:05.613Z,4.60
2022-11-05T21:03:32.759Z,4.60
2022-11-05T21:06:04.289Z,4.60
2022-11-05T21:08:31.493Z,4.50
2022-11-05T21:10:59.078Z,4.60
2022-11-05T21:13:26.661Z,4.60
2022-11-05T21:15:56.718Z,4.60
2022-11-05T21:18:26.240Z,4.60
2022-11-05T21:20:53.309Z,4.60
2022-11-05T21:23:20.800Z,4.50
2022-11-05T21:25:47.798Z,4.50
2022-11-05T21:28:16.312Z,4.50
2022-11-05T21:30:45.903Z,4.50
2022-11-05T21:33:14.354Z,4.40
2022-11-05T21:35:46.809Z,4.40
2022-11-05T21:38:16.239Z,4.30
2022-11-05T21:40:43.465Z,4.30
2022-11-05T21:43:11.036Z,4.30
2022-11-05T21:45:42.232Z,4.30
2022-11-05T21:48:10.157Z,4.20
2022-11-05T21:50:59.871Z,4.20
2022-11-05T21:53:45.408Z,4.10
2022-11-05T21:56:39.580Z,4.10
2022-11-05T21:59:25.088Z,4.00
2022-11-05T22:02:01.376Z,4.00
2022-11-05T22:04:34.203Z,3.90
2022-11-05T22:07:01.361Z,3.90
2022-11-05T22:09:28.906Z,3.90
2022-11-05T22:11:56.147Z,3.90
2022-11-05T22:14:24.285Z,3.90
2022-11-05T22:16:51.310Z,3.90
2022-11-05T22:19:18.647Z,3.90
2022-11-05T22:21:46.175Z,3.80
2022-11-05T22:24:13.291Z,3.80
2022-11-05T22:26:42.090Z,3.80
2022-11-05T22:29:09.696Z,3.80
2022-11-05T22:31:36.980Z,3.80
2022-11-05T22:34:05.762Z,3.80
2022-11-05T22:36:34.092Z,3.80
2022-11-05T22:39:01.415Z,3.80
2022-11-05T22:41:28.413Z,3.90
2022-11-05T22:43:55.907Z,3.90
2022-11-05T22:46:25.687Z,3.80
2022-11-05T22:48:53.467Z,3.70
2022-11-05T22:51:24.726Z,3.60
2022-11-05T22:53:51.998Z,3.50
2022-11-05T22:56:22.633Z,3.40
2022-11-05T22:58:50.319Z,3.40
2022-11-05T23:01:18.869Z,3.40
2022-11-05T23:03:47.999Z,3.30
2022-11-05T23:06:37.630Z,3.30
2022-11-05T23:09:26.316Z,3.40
2022-11-05T23:11:54.027Z,3.30
2022-11-05T23:14:21.237Z,3.20
2022-11-05T23:17:21.341Z,3.20
2022-11-05T23:20:06.887Z,3.10
2022-11-05T23:22:52.491Z,3.10
2022-11-05T23:25:21.453Z,3.10
2022-11-05T23:27:51.192Z,3.00
2022-11-05T23:30:25.593Z,2.90
2022-11-05T23:32:53.570Z,3.00
2022-11-05T23:35:43.153Z,2.90
2022-11-05T23:38:28.565Z,2.90
2022-11-05T23:41:18.265Z,2.90
2022-11-05T23:44:03.945Z,2.80
2022-11-05T23:46:49.645Z,2.80
2022-11-05T23:49:16.719Z,2.80
2022-11-05T23:51:43.718Z,2.80
2022-11-05T23:54:10.876Z,2.70
2022-11-05T23:56:38.016Z,2.70
2022-11-05T23:59:05.383Z,2.70
